Whetstone, United Kingdom
Current Conditions -  °F | °C
As of 4:50 PM on Thursday 30 Oct 2014 (Local Time) from EGWU Reporting Station
Broken Clouds Broken Clouds  
Wind Chill: 17°   Ceiling: 7500
Heat Index: 17°   Visibility: 6mi
Dew Point: 14°   Wind: 6mph
Humidity: 82%   Direction: 160°SSE
Pressure: 30.06"   Gusts: NA
Location:  51.63°N, 0.16°W
Report Text: EGWU 301650Z 16005KT 9999 SCT018 BKN075 17/14 Q1018 WHT BECMG FEW018 BLU
Loading
Personal Weather Stations






























Interactive Weather Map
Tropical Storm Tracking
New forecast layout! Learn more

10-Day Weather Forecast

Advertisements
Track Severe Weather on mobile